This is the latest recevied weather packets stored in our database for station/object W2BP-13. If no packets are shown the sender has not sent any weather packets the latest 10 day(s).
| Time | Temp. | Humidity | Pressure | Rain* | Wind** | Luminosity | Snow |
|---|---|---|---|---|---|---|---|
| 1777888532 | 11.11° C | 75% | 1012.4 hPa | 0 mm | - | - | - |
| 1777887633 | 11.67° C | 73% | 1012.5 hPa | 0 mm | - | - | - |
| 1777886733 | 12.78° C | 68% | 1012.4 hPa | 0 mm | - | - | - |
| 1777885833 | 12.78° C | 67% | 1012.5 hPa | 0 mm | - | - | - |
| 1777884932 | 13.33° C | 64% | 1012.3 hPa | 0 mm | - | - | - |
| 1777884033 | 13.33° C | 65% | 1012.4 hPa | 0 mm | - | - | - |
| 1777883133 | 13.89° C | 64% | 1012.3 hPa | 0 mm | - | - | - |
| 1777882233 | 13.89° C | 64% | 1012.5 hPa | 0 mm | - | - | - |
| 1777881332 | 14.44° C | 63% | 1012.5 hPa | 0 mm | - | - | - |
| 1777880432 | 14.44° C | 63% | 1012.9 hPa | 0 mm | - | - | - |
| 1777879533 | 14.44° C | 65% | 1012.5 hPa | 0 mm | - | - | - |
| 1777878632 | 14.44° C | 66% | 1012.6 hPa | 0 mm | - | - | - |
| 1777877732 | 14.44° C | 67% | 1012.4 hPa | 0 mm | - | - | - |
| 1777876833 | 14.44° C | 66% | 1012.4 hPa | 0 mm | - | - | - |
| 1777875933 | 15.56° C | 61% | 1012.3 hPa | 0 mm | - | - | - |
| 1777875033 | 16.67° C | 58% | 1012.4 hPa | 0 mm | - | - | - |
| 1777874132 | 16.67° C | 59% | 1012.3 hPa | 0 mm | - | - | - |
| 1777873233 | 17.78° C | 55% | 1012.2 hPa | 0 mm | - | - | - |
| 1777872333 | 19.44° C | 46% | 1012.2 hPa | 0 mm | - | - | - |
| 1777871432 | 19.44° C | 49% | 1012.4 hPa | 0 mm | - | - | - |
| 1777870532 | 20.56° C | 44% | 1012.2 hPa | 0 mm | - | - | - |
| 1777869633 | 21.11° C | 36% | 1012.2 hPa | 0 mm | - | - | - |
| 1777868733 | 21.67° C | 34% | 1012 hPa | 0 mm | - | - | - |
| 1777867833 | 21.67° C | 36% | 1012.2 hPa | 0 mm | - | - | - |
| 1777866932 | 22.78° C | 33% | 1012 hPa | 0 mm | - | - | - |
* Rain latest hour (hover to see other rain measurements)
** Current wind speed in m/s (hover to see current wind gust speed)